TFM - Tactical Decision Aid
ID: Runway Winds: CIG/VIS Threshold:

KLAX - Los Angeles Intl, CA, US

Updated at: 0114 UTC 12 May 2021
Latest TAF at: 2337 UTC 11 May 2021

TAF Board

Time0053Z 12/02Z 12/03Z 12/04Z 12/05Z 12/06Z 12/07Z 12/08Z 12/09Z 12/10Z 12/11Z 12/12Z 12/13Z 12/14Z>>
Type OBS PRVL PRVL PRVL PRVL PRVL PRVL PRVL PRVL PRVL PRVL PRVL PRVL PRVL
VIS 10 >6 >6 >6 >6 >6 >6 >6 >6 >6 >6 >6 >6 >6
CIG -- -- -- -- 15 15 15 12 12 12 12 12 12 12
Cover FEW SKC SKC SKC BKN BKN BKN OVC OVC OVC OVC OVC OVC OVC
FltCat VFR VFR VFR VFR MVFR MVFR MVFR MVFR MVFR MVFR MVFR MVFR MVFR MVFR
WX -- -- -- -- -- -- -- -- -- -- -- -- -- --
WDir 250 260 260 260 260 260 260 VRB VRB VRB VRB VRB VRB VRB
WSpd 14 12 12 12 4 4 4 3 3 3 3 3 3 3
WGst -- -- -- -- -- -- -- -- -- -- -- -- -- --

TDA Impact Legend

  None Marginal Slight Moderate High
Visibility (sm) >5 3≤X≤5 1≤X<3 0.5≤X<1 <0.5
Ceiling (100 ft) >30 10≤X≤30 4≤X<10 2≤X<4 <2
Wind Speed (kt) <15 15≤X<25 25≤X<30 ≥30
Wind Gust (kt) <15 15≤X<25 25≤X<35 ≥35
Weather No Wx Reported VCTS -TS,-FZRA TS,FZRA +TS,+FZRA
TAF
KLAX 112337Z 1200/1306 26012KT P6SM SKC
  FM120500 26004KT P6SM BKN015
  FM120800 VRB03KT P6SM OVC012
  FM121500 VRB03KT P6SM OVC015
  FM122000 26012KT P6SM SCT020
  FM130300 26009KT P6SM BKN015


METAR
KLAX 120053Z 25014KT 10SM FEW013 18/13 A2990 RMK AO2 SLP124 T01780128
KLAX 112353Z 26014KT 10SM FEW015 19/13 A2990 RMK AO2 SLP123 T01890133 10194 20167 56010
KLAX 112253Z 26010KT 10SM FEW014 19/13 A2990 RMK AO2 SLP125 T01890133
KLAX 112153Z 26012KT 10SM SCT014 19/13 A2991 RMK AO2 SLP128 T01890133

Radar Display
Forecast Discussion